sensor_id;sensor_type;location;lat;lon;timestamp;P1;durP1;ratioP1;P2;durP2;ratioP2
66112;SDS011;52893;52.870;5.822;2022-12-18T00:01:19;40.40;;;14.88;;
66112;SDS011;52893;52.870;5.822;2022-12-18T00:03:48;41.92;;;17.30;;
66112;SDS011;52893;52.870;5.822;2022-12-18T00:06:16;45.38;;;16.27;;
66112;SDS011;52893;52.870;5.822;2022-12-18T00:08:44;37.70;;;13.63;;
66112;SDS011;52893;52.870;5.822;2022-12-18T00:11:13;60.08;;;21.08;;
66112;SDS011;52893;52.870;5.822;2022-12-18T00:13:44;45.60;;;14.30;;
66112;SDS011;52893;52.870;5.822;2022-12-18T00:16:13;45.88;;;14.50;;
66112;SDS011;52893;52.870;5.822;2022-12-18T00:18:41;37.05;;;12.65;;
66112;SDS011;52893;52.870;5.822;2022-12-18T00:21:10;30.38;;;11.57;;
66112;SDS011;52893;52.870;5.822;2022-12-18T00:23:38;43.35;;;15.57;;
66112;SDS011;52893;52.870;5.822;2022-12-18T00:26:08;53.38;;;18.45;;
66112;SDS011;52893;52.870;5.822;2022-12-18T00:28:41;34.58;;;13.90;;
66112;SDS011;52893;52.870;5.822;2022-12-18T00:31:11;58.70;;;19.42;;
66112;SDS011;52893;52.870;5.822;2022-12-18T00:33:40;44.75;;;15.50;;
66112;SDS011;52893;52.870;5.822;2022-12-18T00:36:10;67.60;;;20.42;;
66112;SDS011;52893;52.870;5.822;2022-12-18T00:38:38;58.85;;;20.67;;
66112;SDS011;52893;52.870;5.822;2022-12-18T00:41:06;40.38;;;11.65;;
66112;SDS011;52893;52.870;5.822;2022-12-18T00:43:35;43.55;;;14.32;;
66112;SDS011;52893;52.870;5.822;2022-12-18T00:46:03;52.30;;;17.73;;
66112;SDS011;52893;52.870;5.822;2022-12-18T00:48:31;42.75;;;14.07;;
66112;SDS011;52893;52.870;5.822;2022-12-18T00:50:59;54.72;;;18.00;;
66112;SDS011;52893;52.870;5.822;2022-12-18T00:53:26;58.78;;;18.95;;
66112;SDS011;52893;52.870;5.822;2022-12-18T00:55:55;32.13;;;10.02;;
66112;SDS011;52893;52.870;5.822;2022-12-18T00:58:22;52.75;;;17.98;;
66112;SDS011;52893;52.870;5.822;2022-12-18T01:00:49;44.60;;;15.43;;
66112;SDS011;52893;52.870;5.822;2022-12-18T01:03:18;19.83;;;7.47;;
66112;SDS011;52893;52.870;5.822;2022-12-18T01:05:45;61.38;;;18.90;;
66112;SDS011;52893;52.870;5.822;2022-12-18T01:08:13;39.13;;;13.27;;
66112;SDS011;52893;52.870;5.822;2022-12-18T01:10:43;52.70;;;15.43;;
66112;SDS011;52893;52.870;5.822;2022-12-18T01:13:10;53.88;;;16.65;;
66112;SDS011;52893;52.870;5.822;2022-12-18T01:15:37;66.20;;;18.80;;
66112;SDS011;52893;52.870;5.822;2022-12-18T01:18:06;44.17;;;15.07;;
66112;SDS011;52893;52.870;5.822;2022-12-18T01:20:35;64.30;;;20.35;;
66112;SDS011;52893;52.870;5.822;2022-12-18T01:23:05;27.27;;;9.60;;
66112;SDS011;52893;52.870;5.822;2022-12-18T01:25:35;54.58;;;15.80;;
66112;SDS011;52893;52.870;5.822;2022-12-18T01:28:02;53.20;;;16.17;;
66112;SDS011;52893;52.870;5.822;2022-12-18T01:30:31;38.40;;;13.15;;
66112;SDS011;52893;52.870;5.822;2022-12-18T01:32:58;36.97;;;13.52;;
66112;SDS011;52893;52.870;5.822;2022-12-18T01:35:26;52.58;;;17.30;;
66112;SDS011;52893;52.870;5.822;2022-12-18T01:37:55;31.42;;;11.10;;
66112;SDS011;52893;52.870;5.822;2022-12-18T01:40:23;18.10;;;8.13;;
66112;SDS011;52893;52.870;5.822;2022-12-18T01:42:51;37.75;;;14.38;;
66112;SDS011;52893;52.870;5.822;2022-12-18T01:45:23;37.67;;;13.63;;
66112;SDS011;52893;52.870;5.822;2022-12-18T01:47:53;40.63;;;12.70;;
66112;SDS011;52893;52.870;5.822;2022-12-18T01:50:23;37.38;;;12.60;;
66112;SDS011;52893;52.870;5.822;2022-12-18T01:52:56;37.63;;;14.23;;
66112;SDS011;52893;52.870;5.822;2022-12-18T01:55:26;39.33;;;13.68;;
66112;SDS011;52893;52.870;5.822;2022-12-18T01:57:58;63.92;;;19.58;;
66112;SDS011;52893;52.870;5.822;2022-12-18T02:00:27;46.90;;;15.50;;
66112;SDS011;52893;52.870;5.822;2022-12-18T02:02:55;37.50;;;12.05;;
66112;SDS011;52893;52.870;5.822;2022-12-18T02:05:25;45.42;;;13.27;;
66112;SDS011;52893;52.870;5.822;2022-12-18T02:08:05;33.20;;;11.70;;
66112;SDS011;52893;52.870;5.822;2022-12-18T02:10:39;31.75;;;10.15;;
66112;SDS011;52893;52.870;5.822;2022-12-18T02:13:14;36.38;;;12.02;;
66112;SDS011;52893;52.870;5.822;2022-12-18T02:15:48;53.40;;;15.07;;
66112;SDS011;52893;52.870;5.822;2022-12-18T02:18:23;28.42;;;10.82;;
66112;SDS011;52893;52.870;5.822;2022-12-18T02:20:55;30.00;;;12.00;;
66112;SDS011;52893;52.870;5.822;2022-12-18T02:23:35;46.85;;;15.00;;
66112;SDS011;52893;52.870;5.822;2022-12-18T02:26:15;46.75;;;15.15;;
66112;SDS011;52893;52.870;5.822;2022-12-18T02:28:51;42.10;;;11.98;;
66112;SDS011;52893;52.870;5.822;2022-12-18T02:31:25;48.35;;;11.60;;
66112;SDS011;52893;52.870;5.822;2022-12-18T02:33:58;43.90;;;13.45;;
66112;SDS011;52893;52.870;5.822;2022-12-18T02:36:31;33.35;;;12.15;;
66112;SDS011;52893;52.870;5.822;2022-12-18T02:39:00;45.47;;;14.63;;
66112;SDS011;52893;52.870;5.822;2022-12-18T02:41:32;49.85;;;15.75;;
66112;SDS011;52893;52.870;5.822;2022-12-18T02:44:00;38.20;;;15.43;;
66112;SDS011;52893;52.870;5.822;2022-12-18T02:46:32;50.97;;;17.67;;
66112;SDS011;52893;52.870;5.822;2022-12-18T02:49:09;55.35;;;17.80;;
66112;SDS011;52893;52.870;5.822;2022-12-18T02:51:50;26.65;;;9.38;;
66112;SDS011;52893;52.870;5.822;2022-12-18T02:54:26;40.45;;;14.82;;
66112;SDS011;52893;52.870;5.822;2022-12-18T02:57:05;53.13;;;18.02;;
66112;SDS011;52893;52.870;5.822;2022-12-18T02:59:39;38.45;;;13.18;;
66112;SDS011;52893;52.870;5.822;2022-12-18T03:02:12;59.17;;;19.58;;
66112;SDS011;52893;52.870;5.822;2022-12-18T03:04:49;46.22;;;17.20;;
66112;SDS011;52893;52.870;5.822;2022-12-18T03:07:23;40.70;;;14.25;;
66112;SDS011;52893;52.870;5.822;2022-12-18T03:09:55;46.42;;;16.42;;
66112;SDS011;52893;52.870;5.822;2022-12-18T03:12:27;53.72;;;17.75;;
66112;SDS011;52893;52.870;5.822;2022-12-18T03:14:58;56.88;;;19.45;;
66112;SDS011;52893;52.870;5.822;2022-12-18T03:17:31;64.03;;;17.27;;
66112;SDS011;52893;52.870;5.822;2022-12-18T03:20:01;34.97;;;12.80;;
66112;SDS011;52893;52.870;5.822;2022-12-18T03:22:33;54.50;;;18.77;;
66112;SDS011;52893;52.870;5.822;2022-12-18T03:25:04;44.38;;;13.55;;
66112;SDS011;52893;52.870;5.822;2022-12-18T03:27:40;45.33;;;13.55;;
66112;SDS011;52893;52.870;5.822;2022-12-18T03:30:14;36.85;;;12.02;;
66112;SDS011;52893;52.870;5.822;2022-12-18T03:32:44;59.22;;;17.88;;
66112;SDS011;52893;52.870;5.822;2022-12-18T03:35:20;36.42;;;13.60;;
66112;SDS011;52893;52.870;5.822;2022-12-18T03:37:51;63.97;;;19.98;;
66112;SDS011;52893;52.870;5.822;2022-12-18T03:40:18;38.70;;;13.57;;
66112;SDS011;52893;52.870;5.822;2022-12-18T03:42:55;39.47;;;13.90;;
66112;SDS011;52893;52.870;5.822;2022-12-18T03:45:28;43.65;;;16.00;;
66112;SDS011;52893;52.870;5.822;2022-12-18T03:48:02;50.03;;;15.43;;
66112;SDS011;52893;52.870;5.822;2022-12-18T03:50:40;31.73;;;10.85;;
66112;SDS011;52893;52.870;5.822;2022-12-18T03:53:17;39.65;;;13.85;;
66112;SDS011;52893;52.870;5.822;2022-12-18T03:55:51;55.63;;;17.63;;
66112;SDS011;52893;52.870;5.822;2022-12-18T03:58:22;32.33;;;11.90;;
66112;SDS011;52893;52.870;5.822;2022-12-18T04:00:59;57.45;;;16.25;;
66112;SDS011;52893;52.870;5.822;2022-12-18T04:03:29;47.63;;;15.43;;
66112;SDS011;52893;52.870;5.822;2022-12-18T04:05:59;54.00;;;18.52;;
66112;SDS011;52893;52.870;5.822;2022-12-18T04:08:28;53.83;;;15.60;;
66112;SDS011;52893;52.870;5.822;2022-12-18T04:11:03;53.17;;;18.88;;
66112;SDS011;52893;52.870;5.822;2022-12-18T04:13:34;49.53;;;16.00;;
66112;SDS011;52893;52.870;5.822;2022-12-18T04:16:07;45.67;;;15.23;;
66112;SDS011;52893;52.870;5.822;2022-12-18T04:18:38;62.85;;;20.25;;
66112;SDS011;52893;52.870;5.822;2022-12-18T04:21:05;73.07;;;21.15;;
66112;SDS011;52893;52.870;5.822;2022-12-18T04:23:33;77.03;;;21.48;;
66112;SDS011;52893;52.870;5.822;2022-12-18T04:26:01;52.67;;;18.15;;
66112;SDS011;52893;52.870;5.822;2022-12-18T04:28:48;58.90;;;18.70;;
66112;SDS011;52893;52.870;5.822;2022-12-18T04:31:15;62.92;;;19.33;;
66112;SDS011;52893;52.870;5.822;2022-12-18T04:33:43;61.75;;;18.25;;
66112;SDS011;52893;52.870;5.822;2022-12-18T04:36:10;59.92;;;17.13;;
66112;SDS011;52893;52.870;5.822;2022-12-18T04:38:39;43.10;;;14.10;;
66112;SDS011;52893;52.870;5.822;2022-12-18T04:41:14;34.50;;;11.23;;
66112;SDS011;52893;52.870;5.822;2022-12-18T04:43:43;49.15;;;12.13;;
66112;SDS011;52893;52.870;5.822;2022-12-18T04:46:12;22.83;;;5.93;;
66112;SDS011;52893;52.870;5.822;2022-12-18T04:48:40;36.33;;;12.52;;
66112;SDS011;52893;52.870;5.822;2022-12-18T04:51:07;29.48;;;10.75;;
66112;SDS011;52893;52.870;5.822;2022-12-18T04:53:34;54.22;;;15.45;;
66112;SDS011;52893;52.870;5.822;2022-12-18T04:56:02;57.55;;;20.70;;
66112;SDS011;52893;52.870;5.822;2022-12-18T04:58:31;59.58;;;19.77;;
66112;SDS011;52893;52.870;5.822;2022-12-18T05:00:58;60.95;;;18.92;;
66112;SDS011;52893;52.870;5.822;2022-12-18T05:03:27;51.45;;;16.75;;
66112;SDS011;52893;52.870;5.822;2022-12-18T05:05:54;51.65;;;17.23;;
66112;SDS011;52893;52.870;5.822;2022-12-18T05:08:21;48.35;;;17.20;;
66112;SDS011;52893;52.870;5.822;2022-12-18T05:10:49;48.17;;;15.52;;
66112;SDS011;52893;52.870;5.822;2022-12-18T05:13:16;56.55;;;17.92;;
66112;SDS011;52893;52.870;5.822;2022-12-18T05:15:50;42.85;;;14.60;;
66112;SDS011;52893;52.870;5.822;2022-12-18T05:18:18;56.05;;;14.85;;
66112;SDS011;52893;52.870;5.822;2022-12-18T05:20:47;42.20;;;12.88;;
66112;SDS011;52893;52.870;5.822;2022-12-18T05:23:15;37.97;;;12.55;;
66112;SDS011;52893;52.870;5.822;2022-12-18T05:25:46;36.47;;;11.52;;
66112;SDS011;52893;52.870;5.822;2022-12-18T05:28:17;39.75;;;12.82;;
66112;SDS011;52893;52.870;5.822;2022-12-18T05:30:47;41.78;;;13.23;;
66112;SDS011;52893;52.870;5.822;2022-12-18T05:33:15;46.58;;;13.07;;
66112;SDS011;52893;52.870;5.822;2022-12-18T05:35:42;45.13;;;15.75;;
66112;SDS011;52893;52.870;5.822;2022-12-18T05:38:11;31.15;;;10.15;;
66112;SDS011;52893;52.870;5.822;2022-12-18T05:40:41;41.28;;;14.63;;
66112;SDS011;52893;52.870;5.822;2022-12-18T05:43:08;33.85;;;10.30;;
66112;SDS011;52893;52.870;5.822;2022-12-18T05:45:36;32.75;;;12.32;;
66112;SDS011;52893;52.870;5.822;2022-12-18T05:48:04;46.00;;;14.82;;
66112;SDS011;52893;52.870;5.822;2022-12-18T05:50:33;54.38;;;16.13;;
66112;SDS011;52893;52.870;5.822;2022-12-18T05:53:01;54.40;;;15.95;;
66112;SDS011;52893;52.870;5.822;2022-12-18T05:55:32;38.08;;;13.18;;
66112;SDS011;52893;52.870;5.822;2022-12-18T05:57:59;38.88;;;12.85;;
66112;SDS011;52893;52.870;5.822;2022-12-18T06:00:27;42.15;;;14.68;;
66112;SDS011;52893;52.870;5.822;2022-12-18T06:02:54;47.22;;;14.63;;
66112;SDS011;52893;52.870;5.822;2022-12-18T06:05:21;25.27;;;10.73;;
66112;SDS011;52893;52.870;5.822;2022-12-18T06:07:49;44.08;;;15.43;;
66112;SDS011;52893;52.870;5.822;2022-12-18T06:10:16;42.70;;;15.02;;
66112;SDS011;52893;52.870;5.822;2022-12-18T06:12:44;52.13;;;16.27;;
66112;SDS011;52893;52.870;5.822;2022-12-18T06:15:12;38.20;;;14.40;;
66112;SDS011;52893;52.870;5.822;2022-12-18T06:17:39;37.53;;;12.95;;
66112;SDS011;52893;52.870;5.822;2022-12-18T06:20:06;44.42;;;14.65;;
66112;SDS011;52893;52.870;5.822;2022-12-18T06:22:34;37.75;;;13.70;;
66112;SDS011;52893;52.870;5.822;2022-12-18T06:25:02;43.13;;;13.18;;
66112;SDS011;52893;52.870;5.822;2022-12-18T06:27:29;42.22;;;15.18;;
66112;SDS011;52893;52.870;5.822;2022-12-18T06:29:58;39.60;;;13.50;;
66112;SDS011;52893;52.870;5.822;2022-12-18T06:32:26;42.60;;;12.38;;
66112;SDS011;52893;52.870;5.822;2022-12-18T06:34:53;33.05;;;11.30;;
66112;SDS011;52893;52.870;5.822;2022-12-18T06:37:21;41.83;;;15.45;;
66112;SDS011;52893;52.870;5.822;2022-12-18T06:39:50;38.47;;;13.15;;
66112;SDS011;52893;52.870;5.822;2022-12-18T06:42:17;34.92;;;13.50;;
66112;SDS011;52893;52.870;5.822;2022-12-18T06:44:52;39.20;;;14.70;;
66112;SDS011;52893;52.870;5.822;2022-12-18T06:47:20;35.38;;;14.00;;
66112;SDS011;52893;52.870;5.822;2022-12-18T06:49:48;40.60;;;13.43;;
66112;SDS011;52893;52.870;5.822;2022-12-18T06:52:15;38.10;;;13.18;;
66112;SDS011;52893;52.870;5.822;2022-12-18T06:54:42;32.83;;;12.15;;
66112;SDS011;52893;52.870;5.822;2022-12-18T06:57:09;39.45;;;13.30;;
66112;SDS011;52893;52.870;5.822;2022-12-18T06:59:36;37.65;;;13.48;;
66112;SDS011;52893;52.870;5.822;2022-12-18T07:02:04;46.28;;;13.50;;
66112;SDS011;52893;52.870;5.822;2022-12-18T07:04:32;32.13;;;11.93;;
66112;SDS011;52893;52.870;5.822;2022-12-18T07:06:59;35.40;;;12.77;;
66112;SDS011;52893;52.870;5.822;2022-12-18T07:09:27;28.40;;;11.82;;
66112;SDS011;52893;52.870;5.822;2022-12-18T07:11:54;27.77;;;11.20;;
66112;SDS011;52893;52.870;5.822;2022-12-18T07:14:21;31.98;;;12.13;;
66112;SDS011;52893;52.870;5.822;2022-12-18T07:16:49;34.97;;;12.07;;
66112;SDS011;52893;52.870;5.822;2022-12-18T07:19:16;30.98;;;12.20;;
66112;SDS011;52893;52.870;5.822;2022-12-18T07:21:44;29.40;;;9.68;;
66112;SDS011;52893;52.870;5.822;2022-12-18T07:24:12;38.30;;;12.55;;
66112;SDS011;52893;52.870;5.822;2022-12-18T07:26:39;20.25;;;9.23;;
66112;SDS011;52893;52.870;5.822;2022-12-18T07:29:06;35.72;;;12.23;;
66112;SDS011;52893;52.870;5.822;2022-12-18T07:31:33;31.60;;;13.02;;
66112;SDS011;52893;52.870;5.822;2022-12-18T07:34:00;33.17;;;13.30;;
66112;SDS011;52893;52.870;5.822;2022-12-18T07:36:28;30.98;;;10.80;;
66112;SDS011;52893;52.870;5.822;2022-12-18T07:38:56;29.70;;;10.85;;
66112;SDS011;52893;52.870;5.822;2022-12-18T07:41:23;34.60;;;12.15;;
66112;SDS011;52893;52.870;5.822;2022-12-18T07:43:50;26.25;;;9.52;;
66112;SDS011;52893;52.870;5.822;2022-12-18T07:46:18;34.55;;;10.50;;
66112;SDS011;52893;52.870;5.822;2022-12-18T07:48:45;28.10;;;11.70;;
66112;SDS011;52893;52.870;5.822;2022-12-18T07:51:12;25.38;;;9.88;;
66112;SDS011;52893;52.870;5.822;2022-12-18T07:53:40;21.50;;;9.48;;
66112;SDS011;52893;52.870;5.822;2022-12-18T07:56:10;28.63;;;8.63;;
66112;SDS011;52893;52.870;5.822;2022-12-18T07:58:39;22.67;;;9.50;;
66112;SDS011;52893;52.870;5.822;2022-12-18T08:01:07;35.65;;;11.15;;
66112;SDS011;52893;52.870;5.822;2022-12-18T08:03:35;31.83;;;12.32;;
66112;SDS011;52893;52.870;5.822;2022-12-18T08:06:04;34.20;;;11.80;;
66112;SDS011;52893;52.870;5.822;2022-12-18T08:08:33;28.98;;;10.50;;
66112;SDS011;52893;52.870;5.822;2022-12-18T08:11:01;36.47;;;12.90;;
66112;SDS011;52893;52.870;5.822;2022-12-18T08:13:30;15.70;;;6.35;;
66112;SDS011;52893;52.870;5.822;2022-12-18T08:15:58;26.75;;;9.25;;
66112;SDS011;52893;52.870;5.822;2022-12-18T08:18:27;21.40;;;7.55;;
66112;SDS011;52893;52.870;5.822;2022-12-18T08:20:54;26.48;;;9.82;;
66112;SDS011;52893;52.870;5.822;2022-12-18T08:23:22;35.08;;;10.10;;
66112;SDS011;52893;52.870;5.822;2022-12-18T08:25:49;24.15;;;10.77;;
66112;SDS011;52893;52.870;5.822;2022-12-18T08:28:17;21.83;;;7.70;;
66112;SDS011;52893;52.870;5.822;2022-12-18T08:30:45;21.80;;;8.73;;
66112;SDS011;52893;52.870;5.822;2022-12-18T08:33:13;20.45;;;7.97;;
66112;SDS011;52893;52.870;5.822;2022-12-18T08:35:40;18.25;;;7.72;;
66112;SDS011;52893;52.870;5.822;2022-12-18T08:38:07;25.58;;;9.30;;
66112;SDS011;52893;52.870;5.822;2022-12-18T08:40:34;19.25;;;8.40;;
66112;SDS011;52893;52.870;5.822;2022-12-18T08:43:01;24.90;;;10.18;;
66112;SDS011;52893;52.870;5.822;2022-12-18T08:45:47;28.00;;;10.32;;
66112;SDS011;52893;52.870;5.822;2022-12-18T08:48:15;18.00;;;7.80;;
66112;SDS011;52893;52.870;5.822;2022-12-18T08:50:42;18.70;;;8.18;;
66112;SDS011;52893;52.870;5.822;2022-12-18T08:53:09;24.90;;;10.25;;
66112;SDS011;52893;52.870;5.822;2022-12-18T08:55:36;27.45;;;9.88;;
66112;SDS011;52893;52.870;5.822;2022-12-18T08:58:04;36.63;;;12.80;;
66112;SDS011;52893;52.870;5.822;2022-12-18T09:00:34;15.85;;;7.93;;
66112;SDS011;52893;52.870;5.822;2022-12-18T09:03:03;23.88;;;10.90;;
66112;SDS011;52893;52.870;5.822;2022-12-18T09:05:30;11.68;;;5.43;;
66112;SDS011;52893;52.870;5.822;2022-12-18T09:07:57;17.67;;;6.63;;
66112;SDS011;52893;52.870;5.822;2022-12-18T09:10:25;31.02;;;10.27;;
66112;SDS011;52893;52.870;5.822;2022-12-18T09:12:52;25.27;;;10.18;;
66112;SDS011;52893;52.870;5.822;2022-12-18T09:15:19;27.88;;;10.43;;
66112;SDS011;52893;52.870;5.822;2022-12-18T09:17:47;19.55;;;8.43;;
66112;SDS011;52893;52.870;5.822;2022-12-18T09:20:17;21.83;;;9.30;;
66112;SDS011;52893;52.870;5.822;2022-12-18T09:22:44;21.85;;;9.00;;
66112;SDS011;52893;52.870;5.822;2022-12-18T09:25:11;18.70;;;8.05;;
66112;SDS011;52893;52.870;5.822;2022-12-18T09:27:39;12.38;;;7.05;;
66112;SDS011;52893;52.870;5.822;2022-12-18T09:30:07;17.88;;;8.68;;
66112;SDS011;52893;52.870;5.822;2022-12-18T09:32:34;16.60;;;7.15;;
66112;SDS011;52893;52.870;5.822;2022-12-18T09:35:02;13.07;;;7.13;;
66112;SDS011;52893;52.870;5.822;2022-12-18T09:37:31;16.40;;;6.30;;
66112;SDS011;52893;52.870;5.822;2022-12-18T09:39:58;16.05;;;7.75;;
66112;SDS011;52893;52.870;5.822;2022-12-18T09:42:25;16.55;;;7.28;;
66112;SDS011;52893;52.870;5.822;2022-12-18T09:44:53;22.48;;;10.07;;
66112;SDS011;52893;52.870;5.822;2022-12-18T09:47:23;18.67;;;7.38;;
66112;SDS011;52893;52.870;5.822;2022-12-18T09:49:53;25.27;;;10.95;;
66112;SDS011;52893;52.870;5.822;2022-12-18T09:52:25;19.75;;;8.80;;
66112;SDS011;52893;52.870;5.822;2022-12-18T09:54:58;22.85;;;9.77;;
66112;SDS011;52893;52.870;5.822;2022-12-18T09:57:28;21.98;;;8.60;;
66112;SDS011;52893;52.870;5.822;2022-12-18T10:00:04;17.30;;;8.13;;
66112;SDS011;52893;52.870;5.822;2022-12-18T10:02:38;14.02;;;6.53;;
66112;SDS011;52893;52.870;5.822;2022-12-18T10:05:10;26.52;;;8.27;;
66112;SDS011;52893;52.870;5.822;2022-12-18T10:07:43;18.65;;;8.38;;
66112;SDS011;52893;52.870;5.822;2022-12-18T10:10:26;16.30;;;7.78;;
66112;SDS011;52893;52.870;5.822;2022-12-18T10:15:34;16.42;;;7.10;;
66112;SDS011;52893;52.870;5.822;2022-12-18T10:18:07;10.50;;;5.53;;
66112;SDS011;52893;52.870;5.822;2022-12-18T10:20:45;11.50;;;5.55;;
66112;SDS011;52893;52.870;5.822;2022-12-18T10:23:17;15.27;;;6.75;;
66112;SDS011;52893;52.870;5.822;2022-12-18T10:25:53;18.10;;;7.00;;
66112;SDS011;52893;52.870;5.822;2022-12-18T10:28:27;13.98;;;6.57;;
66112;SDS011;52893;52.870;5.822;2022-12-18T10:30:58;8.93;;;4.85;;
66112;SDS011;52893;52.870;5.822;2022-12-18T10:33:27;13.98;;;7.00;;
66112;SDS011;52893;52.870;5.822;2022-12-18T10:35:57;13.10;;;5.67;;
66112;SDS011;52893;52.870;5.822;2022-12-18T10:38:26;10.73;;;5.95;;
66112;SDS011;52893;52.870;5.822;2022-12-18T10:40:56;15.60;;;7.28;;
66112;SDS011;52893;52.870;5.822;2022-12-18T10:43:27;8.63;;;4.35;;
66112;SDS011;52893;52.870;5.822;2022-12-18T10:46:00;13.55;;;6.70;;
66112;SDS011;52893;52.870;5.822;2022-12-18T10:48:31;13.07;;;5.60;;
66112;SDS011;52893;52.870;5.822;2022-12-18T10:51:03;12.18;;;5.68;;
66112;SDS011;52893;52.870;5.822;2022-12-18T10:53:31;15.77;;;5.82;;
66112;SDS011;52893;52.870;5.822;2022-12-18T10:56:03;11.45;;;5.78;;
66112;SDS011;52893;52.870;5.822;2022-12-18T10:58:33;5.35;;;2.92;;
66112;SDS011;52893;52.870;5.822;2022-12-18T11:01:06;16.20;;;6.55;;
66112;SDS011;52893;52.870;5.822;2022-12-18T11:03:36;17.38;;;6.47;;
66112;SDS011;52893;52.870;5.822;2022-12-18T11:06:08;8.98;;;5.05;;
66112;SDS011;52893;52.870;5.822;2022-12-18T11:08:37;12.10;;;5.85;;
66112;SDS011;52893;52.870;5.822;2022-12-18T11:11:15;16.73;;;5.57;;
66112;SDS011;52893;52.870;5.822;2022-12-18T11:16:34;8.45;;;4.50;;
66112;SDS011;52893;52.870;5.822;2022-12-18T11:21:59;11.63;;;5.55;;
66112;SDS011;52893;52.870;5.822;2022-12-18T11:24:29;10.77;;;5.45;;
66112;SDS011;52893;52.870;5.822;2022-12-18T11:27:00;13.75;;;5.57;;
66112;SDS011;52893;52.870;5.822;2022-12-18T11:29:31;20.20;;;6.72;;
66112;SDS011;52893;52.870;5.822;2022-12-18T11:32:12;11.88;;;6.13;;
66112;SDS011;52893;52.870;5.822;2022-12-18T11:34:50;13.88;;;6.28;;
66112;SDS011;52893;52.870;5.822;2022-12-18T11:37:22;12.68;;;6.22;;
66112;SDS011;52893;52.870;5.822;2022-12-18T11:39:52;11.52;;;5.68;;
66112;SDS011;52893;52.870;5.822;2022-12-18T11:42:27;13.00;;;5.75;;
66112;SDS011;52893;52.870;5.822;2022-12-18T11:45:03;10.55;;;5.20;;
66112;SDS011;52893;52.870;5.822;2022-12-18T11:47:49;11.88;;;5.40;;
66112;SDS011;52893;52.870;5.822;2022-12-18T11:50:23;12.45;;;5.32;;
66112;SDS011;52893;52.870;5.822;2022-12-18T11:52:53;11.13;;;5.30;;
66112;SDS011;52893;52.870;5.822;2022-12-18T11:55:23;13.20;;;5.75;;
66112;SDS011;52893;52.870;5.822;2022-12-18T11:58:00;10.35;;;4.82;;
66112;SDS011;52893;52.870;5.822;2022-12-18T12:00:34;10.50;;;5.28;;
66112;SDS011;52893;52.870;5.822;2022-12-18T12:03:14;10.80;;;5.57;;
66112;SDS011;52893;52.870;5.822;2022-12-18T12:06:07;11.02;;;5.45;;
66112;SDS011;52893;52.870;5.822;2022-12-18T12:08:44;12.82;;;6.18;;
66112;SDS011;52893;52.870;5.822;2022-12-18T12:11:22;9.30;;;4.50;;
66112;SDS011;52893;52.870;5.822;2022-12-18T12:14:03;8.57;;;4.95;;
66112;SDS011;52893;52.870;5.822;2022-12-18T12:16:41;11.18;;;6.43;;
66112;SDS011;52893;52.870;5.822;2022-12-18T12:19:20;16.83;;;5.70;;
66112;SDS011;52893;52.870;5.822;2022-12-18T12:21:57;10.75;;;5.97;;
66112;SDS011;52893;52.870;5.822;2022-12-18T12:24:34;11.95;;;5.57;;
66112;SDS011;52893;52.870;5.822;2022-12-18T12:27:11;7.10;;;4.03;;
66112;SDS011;52893;52.870;5.822;2022-12-18T12:29:49;11.88;;;5.97;;
66112;SDS011;52893;52.870;5.822;2022-12-18T12:32:30;11.02;;;4.95;;
66112;SDS011;52893;52.870;5.822;2022-12-18T12:35:13;9.30;;;4.72;;
66112;SDS011;52893;52.870;5.822;2022-12-18T12:37:50;9.45;;;4.85;;
66112;SDS011;52893;52.870;5.822;2022-12-18T12:40:26;9.38;;;5.10;;
66112;SDS011;52893;52.870;5.822;2022-12-18T12:42:55;11.02;;;5.18;;
66112;SDS011;52893;52.870;5.822;2022-12-18T12:45:41;6.75;;;3.38;;
66112;SDS011;52893;52.870;5.822;2022-12-18T12:48:17;11.35;;;5.32;;
66112;SDS011;52893;52.870;5.822;2022-12-18T12:50:50;10.55;;;5.15;;
66112;SDS011;52893;52.870;5.822;2022-12-18T12:53:21;9.75;;;4.25;;
66112;SDS011;52893;52.870;5.822;2022-12-18T12:55:52;8.77;;;3.72;;
66112;SDS011;52893;52.870;5.822;2022-12-18T12:58:23;8.95;;;5.57;;
66112;SDS011;52893;52.870;5.822;2022-12-18T13:01:01;12.63;;;5.63;;
66112;SDS011;52893;52.870;5.822;2022-12-18T13:03:41;13.48;;;6.15;;
66112;SDS011;52893;52.870;5.822;2022-12-18T13:06:16;9.63;;;4.82;;
66112;SDS011;52893;52.870;5.822;2022-12-18T13:08:55;14.23;;;6.05;;
66112;SDS011;52893;52.870;5.822;2022-12-18T13:11:30;9.70;;;4.53;;
66112;SDS011;52893;52.870;5.822;2022-12-18T13:14:22;10.02;;;5.10;;
66112;SDS011;52893;52.870;5.822;2022-12-18T13:19:40;9.38;;;4.72;;
66112;SDS011;52893;52.870;5.822;2022-12-18T13:22:17;9.65;;;4.57;;
66112;SDS011;52893;52.870;5.822;2022-12-18T13:24:49;7.50;;;3.88;;
66112;SDS011;52893;52.870;5.822;2022-12-18T13:36:19;14.45;;;5.53;;
66112;SDS011;52893;52.870;5.822;2022-12-18T13:45:35;7.78;;;4.10;;
66112;SDS011;52893;52.870;5.822;2022-12-18T13:48:10;6.97;;;4.03;;
66112;SDS011;52893;52.870;5.822;2022-12-18T13:50:44;8.80;;;4.25;;
66112;SDS011;52893;52.870;5.822;2022-12-18T13:55:47;9.60;;;3.90;;
66112;SDS011;52893;52.870;5.822;2022-12-18T13:58:15;10.57;;;3.65;;
66112;SDS011;52893;52.870;5.822;2022-12-18T14:00:43;11.73;;;3.38;;
66112;SDS011;52893;52.870;5.822;2022-12-18T14:03:17;8.88;;;4.35;;
66112;SDS011;52893;52.870;5.822;2022-12-18T14:05:48;5.30;;;3.55;;
66112;SDS011;52893;52.870;5.822;2022-12-18T14:08:20;7.57;;;4.25;;
66112;SDS011;52893;52.870;5.822;2022-12-18T14:10:50;9.98;;;4.30;;
66112;SDS011;52893;52.870;5.822;2022-12-18T14:13:20;8.05;;;4.55;;
66112;SDS011;52893;52.870;5.822;2022-12-18T14:15:51;11.05;;;6.30;;
66112;SDS011;52893;52.870;5.822;2022-12-18T14:18:20;9.90;;;4.88;;
66112;SDS011;52893;52.870;5.822;2022-12-18T14:20:51;5.65;;;3.15;;
66112;SDS011;52893;52.870;5.822;2022-12-18T14:23:26;8.32;;;4.57;;
66112;SDS011;52893;52.870;5.822;2022-12-18T14:25:56;6.55;;;3.80;;
66112;SDS011;52893;52.870;5.822;2022-12-18T14:28:23;8.32;;;5.00;;
66112;SDS011;52893;52.870;5.822;2022-12-18T14:30:52;7.70;;;4.63;;
66112;SDS011;52893;52.870;5.822;2022-12-18T14:33:20;10.40;;;4.68;;
66112;SDS011;52893;52.870;5.822;2022-12-18T14:35:55;10.63;;;5.18;;
66112;SDS011;52893;52.870;5.822;2022-12-18T14:38:28;7.65;;;4.30;;
66112;SDS011;52893;52.870;5.822;2022-12-18T14:40:57;8.00;;;4.50;;
66112;SDS011;52893;52.870;5.822;2022-12-18T14:43:25;7.25;;;4.15;;
66112;SDS011;52893;52.870;5.822;2022-12-18T14:45:53;7.35;;;4.50;;
66112;SDS011;52893;52.870;5.822;2022-12-18T14:48:21;11.57;;;4.78;;
66112;SDS011;52893;52.870;5.822;2022-12-18T14:51:00;9.10;;;4.03;;
66112;SDS011;52893;52.870;5.822;2022-12-18T14:53:36;11.65;;;4.90;;
66112;SDS011;52893;52.870;5.822;2022-12-18T14:56:15;11.15;;;4.43;;
66112;SDS011;52893;52.870;5.822;2022-12-18T14:58:48;11.13;;;4.93;;
66112;SDS011;52893;52.870;5.822;2022-12-18T15:01:18;7.03;;;2.93;;
66112;SDS011;52893;52.870;5.822;2022-12-18T15:03:50;13.35;;;6.13;;
66112;SDS011;52893;52.870;5.822;2022-12-18T15:06:24;5.78;;;3.53;;
66112;SDS011;52893;52.870;5.822;2022-12-18T15:08:54;10.25;;;4.63;;
66112;SDS011;52893;52.870;5.822;2022-12-18T15:14:22;8.35;;;5.05;;
66112;SDS011;52893;52.870;5.822;2022-12-18T15:16:52;11.35;;;4.45;;
66112;SDS011;52893;52.870;5.822;2022-12-18T15:19:20;13.38;;;4.88;;
66112;SDS011;52893;52.870;5.822;2022-12-18T15:21:50;5.85;;;3.47;;